NCAR-RAP Real-Time Weather Data

Output produced by METARs form (17 December 2018  07:33 UTC)
found at http://weather.rap.ucar.edu/surface/
 
RJTT 170700Z VRB02KT 9999 FEW015 10/06 Q1003 NOSIG RMK 1CU015 A2963
RJTT 170630Z 13005KT 9999 FEW015 10/06 Q1003 NOSIG RMK 1CU015 A2963 MOD TURB OBS AT 0622Z 5NM N COLOR 12000FT IN DES BY B738
RJTT 170600Z 14006KT 9999 FEW015 10/06 Q1003 NOSIG RMK 1CU015 A2962
RJTT 170530Z 13006KT 9999 FEW015 10/05 Q1002 NOSIG RMK 1CU015 A2961
RJTT 170500Z 10005KT 9999 FEW015 10/04 Q1002 NOSIG RMK 1CU015 A2961
RJTT 170430Z 10004KT 060V130 9999 FEW015 10/04 Q1002 NOSIG RMK 1CU015 A2961
RJTT 170400Z 09003KT 9999 FEW015 09/05 Q1003 NOSIG RMK 1CU015 A2962
RJTT 170330Z 36005KT 9999 FEW015 SCT100 09/04 Q1003 NOSIG RMK 1CU015 4AC100 A2963
RJTT 170300Z 35006KT 9999 FEW010 BKN100 08/05 Q1003 NOSIG RMK 1CU010 6AC100 A2964
RJTT 170230Z 35007KT 9999 -RA FEW005 SCT008 BKN090 08/06 Q1004 NOSIG RMK 1ST005 3ST008 7AC090 A2966
RJTT 170213Z 35008KT 9000 FEW005 SCT008 BKN080 07/06 Q1004 RMK 1ST005 4ST008 7AC080 A2967
RJTT 170200Z 34009KT 7000 FEW005 BKN008 OVC070 07/06 Q1005 TEMPO 4000 -RA BR RMK 1ST005 6ST008 8AS070 A2968
RJTT 170130Z 03008KT 8000 -RA FEW005 BKN008 OVC070 07/06 Q1005 TEMPO 4000 -RA BR
RJTT 170100Z 36005KT 6000 -RA FEW010 OVC070 08/07 Q1007 TEMPO 4500 -RA BR RMK 1CU010 8AS070 A2974
RJTT 170030Z VRB02KT 7000 -RA FEW015 OVC070 08/07 Q1007 TEMPO 4500 -RA BR
RJTT 170000Z VRB01KT 6000 -RA FEW015 OVC070 07/06 Q1008 TEMPO 4500 -RA BR RMK 1CU015 8AS070 A2978
RJTT 162330Z VRB02KT 8000 -RA FEW015 OVC080 08/06 Q1008 TEMPO 4500 -RA BR
RJTT 162300Z 00000KT 8000 -RA FEW015 OVC090 07/05 Q1009 NOSIG RMK 1CU015 8AS090 A2980
RJTT 162230Z 08003KT 050V130 9999 -RA FEW015 OVC090 07/05 Q1009 NOSIG RMK 1CU015 8AS090 A2981
RJTT 162200Z 11004KT 080V160 9999 -RA FEW015 SCT040 BKN060 07/04 Q1009 NOSIG RMK 1CU015 3SC040 7SC060 A2981
RJTT 162130Z VRB01KT 9999 -RA FEW015 BKN040 BKN060 06/03 Q1010 NOSIG RMK 1CU015 6SC040 7SC060 A2983
RJTT 162100Z VRB02KT 9999 -RA FEW015 BKN040 06/03 Q1010 NOSIG RMK 1CU015 7SC040 A2984
RJTT 162030Z VRB02KT 9999 -RA FEW015 BKN060 05/03 Q1010 NOSIG RMK 1CU015 7SC060 A2985
RJTT 162000Z VRB02KT 9999 -RA FEW015 BKN050 OVC100 06/02 Q1011 NOSIG RMK 1CU015 6SC050 8AS100 A2986
RJTT 161930Z 29003KT 250V330 9999 -RA FEW015 SCT050 OVC100 06/02 Q1010 NOSIG RMK 1CU015 3SC050 8AS100 A2985
RJTT 161900Z 30005KT 9999 -RA FEW015 SCT050 OVC100 05/02 Q1011 NOSIG RMK 1CU015 4SC050 8AS100 A2987
RJTT 161830Z 28003KT 9999 -RA FEW015 OVC100 06/01 Q1012 NOSIG RMK 1CU015 8AS100 A2989
RJTT 161800Z 26003KT 9999 -RA FEW015 SCT060 BKN090 05/02 Q1012 NOSIG RMK 1CU015 3SC060 6AC090 A2990
RJTT 161730Z 27003KT 9999 FEW015 BKN140 05/01 Q1012 NOSIG RMK 1CU015 7AC140 A2991
RJTT 161700Z 27003KT 9999 FEW015 BKN140 05/02 Q1013 NOSIG RMK 1CU015 7AC140 A2991
RJTT 161630Z 30003KT 280V030 9999 FEW015 SCT130 BKN/// 05/02 Q1013 NOSIG
RJTT 161600Z 34003KT 300V030 9999 FEW015 SCT100 BKN/// 06/01 Q1013 NOSIG RMK 1CU015 3AC100 A2993
RJTT 161530Z 03003KT 340V050 9999 FEW015 SCT100 BKN/// 07/01 Q1013 NOSIG
RJTT 161500Z 03003KT 360V070 9999 FEW015 BKN/// 07/01 Q1014 NOSIG RMK 1CU015 A2995
RJTT 161430Z 03003KT 9999 FEW015 SCT100 BKN/// 07/01 Q1014 NOSIG
RJTT 161400Z VRB01KT 9999 FEW015 SCT100 BKN/// 05/01 Q1015 NOSIG RMK 1CU015 3AC100 A2999
RJTT 161330Z VRB01KT 9999 FEW015 BKN/// 06/00 Q1016 NOSIG
RJTT 161300Z VRB02KT 9999 FEW015 BKN/// 06/01 Q1016 NOSIG RMK 1CU015 A3002
RJTT 161230Z 29003KT 9999 FEW015 BKN/// 05/01 Q1016 NOSIG
RJTT 161200Z 32005KT 9999 FEW015 SCT/// 05/01 Q1017 NOSIG RMK 1CU015 A3004
RJTT 161130Z 30003KT 250V340 9999 FEW015 06/00 Q1017 NOSIG RMK 1CU015 A3006
RJTT 161100Z 26003KT 230V290 9999 FEW015 06/01 Q1018 NOSIG RMK 1CU015 A3007
RJTT 161030Z 30003KT 230V360 9999 FEW015 06/01 Q1018 NOSIG RMK 1CU015 A3007
RJTT 161000Z 04004KT 360V080 9999 FEW015 07/02 Q1018 NOSIG RMK 1CU015 A3008
RJTT 160930Z 05003KT 020V080 9999 FEW015 SCT170 07/02 Q1019 NOSIG RMK 1CU015 3AC170 A3009
RJTT 160900Z 02004KT 9999 FEW015 BKN170 07/02 Q1019 NOSIG RMK 1CU015 7AC170 A3010
RJTT 160830Z VRB02KT 9999 FEW015 BKN150 06/02 Q1019 NOSIG RMK 1CU015 7AC150 A3011
RJTT 160800Z 31003KT 250V350 9999 FEW020 BKN150 06/01 Q1020 NOSIG RMK 1CU020 7AC150 A3013
RJTT 160730Z VRB02KT 9999 FEW020 BKN150 06/01 Q1020 NOSIG RMK 1CU020 7AC150 A3015
RJTT 160700Z 35005KT 9999 FEW020 BKN160 BKN/// 06/02 Q1020 NOSIG RMK 1CU020 5AC160 A3015
RJTT 160630Z 04004KT 340V080 9999 FEW020 BKN/// 06/02 Q1021 NOSIG
RJTT 160600Z 07006KT 9999 -RA FEW020 BKN050 06/01 Q1021 BECMG 04006KT RMK 1CU020 7SC050 A3016
RJTT 160530Z 05003KT 9999 -RA FEW020 BKN040 06/00 Q1021 NOSIG RMK 1CU020 7SC040 A3017
RJTT 160500Z 02006KT 9999 -RA FEW025 BKN045 06/M00 Q1022 NOSIG RMK 1CU025 7SC045 A3018
RJTT 160430Z 03007KT 9999 -RA FEW025 BKN050 06/M01 Q1022 NOSIG RMK 1CU025 7SC050 A3018
RJTT 160400Z 35005KT 9999 FEW025 BKN045 07/M02 Q1022 NOSIG RMK 1CU025 7SC045 A3019
RJTT 160330Z 33006KT 9999 FEW030 BKN050 06/M02 Q1023 NOSIG RMK 1CU030 7SC050 A3021
RJTT 160300Z 32005KT 9999 FEW030 BKN060 BKN/// 07/M03 Q1023 NOSIG RMK 1CU030 6SC060 A3022
RJTT 160230Z 35004KT 320V030 9999 FEW030 BKN060 BKN/// 06/M03 Q1024 NOSIG
RJTT 160200Z 35006KT 320V030 9999 FEW030 BKN050 BKN/// 06/M02 Q1024 NOSIG RMK 1CU030 5SC050 A3025
RJTT 160130Z 35005KT 320V020 9999 FEW030 SCT060 BKN/// 06/M02 Q1025 NOSIG
RJTT 160100Z 33004KT 250V020 9999 FEW030 SCT060 BKN/// 05/M04 Q1025 NOSIG RMK 1CU030 4SC060 A3029
RJTT 160030Z 29005KT 240V340 9999 FEW030 BKN050 BKN/// 05/M03 Q1026 NOSIG
RJTT 160000Z 29004KT 9999 FEW030 BKN050 BKN/// 04/M03 Q1026 NOSIG
RJTT 152330Z 29004KT 260V340 9999 FEW030 BKN050 04/M03 Q1026 NOSIG RMK 1CU030 6SC050 A3031
RJTT 151330Z 02007KT 9999 FEW045 07/M05 Q1028 NOSIG RMK 2SC045 A3036
RJTT 151300Z 04007KT 9999 FEW050 07/M05 Q1028 NOSIG RMK 1SC050 A3037
RJTT 151230Z 36009KT 9999 FEW050 07/M05 Q1028 NOSIG RMK 2SC050 A3036
RJTT 151200Z 35011KT 320V030 9999 FEW050 07/M05 Q1027 NOSIG RMK 1SC050 A3035
RJTT 151130Z 35011KT 9999 FEW050 07/M04 Q1027 NOSIG RMK 1SC050 A3035
RJTT 151100Z 34013KT 9999 FEW050 07/M05 Q1028 NOSIG RMK 1SC050 A3036
RJTT 151030Z 33011KT 9999 FEW050 06/M06 Q1027 NOSIG RMK 1SC050 A3035
RJTT 151000Z 34012G23KT 310V010 9999 FEW050 07/M06 Q1027 NOSIG RMK 1SC050 A3035
RJTT 150930Z 34012KT 9999 FEW050 07/M06 Q1027 NOSIG RMK 1SC050 A3034
RJTT 150900Z 35014KT 9999 FEW050 08/M03 Q1027 NOSIG RMK 1SC050 A3033
RJTT 150830Z 34014KT 9999 FEW030 08/M04 Q1026 NOSIG RMK 1CU030 A3032
RJTT 150800Z 34011KT 9999 FEW030 08/M05 Q1026 NOSIG RMK 1CU030 A3031
RJTT 150730Z 35014KT 9999 FEW030 09/M04 Q1026 NOSIG RMK 1CU030 A3030
RJTT 150700Z 35011KT 310V010 9999 FEW030 09/M02 Q1025 NOSIG RMK 1CU030 A3029
RJTT 150630Z 36014KT 9999 FEW030 09/M04 Q1025 NOSIG RMK 1CU030 A3028
RJTT 150600Z 36018KT 9999 FEW030 09/M03 Q1025 NOSIG RMK 1CU030 A3027
RJTT 150530Z 35013KT 9999 FEW030 10/M03 Q1024 NOSIG RMK 1CU030 A3026
RJTT 150500Z 36014KT 9999 FEW030 10/M03 Q1024 NOSIG RMK 1CU030 A3026
RJTT 150430Z 36017KT 9999 FEW030 SCT070 09/M04 Q1024 NOSIG RMK 1CU030 3AC070 A3026
RJTT 150400Z 35016KT 9999 FEW030 SCT070 10/M04 Q1024 NOSIG RMK 1CU030 3AC070 A3026
RJTT 150336Z 35017G27KT 9999 FEW030 09/M04 Q1024 RMK 1CU030 A3025
RJTT 150330Z 35017KT 9999 FEW030 09/M04 Q1024 NOSIG RMK 1CU030 A3025
RJTT 150300Z 35017G27KT 9999 FEW030 09/M03 Q1024 NOSIG RMK 1CU030 A3026
RJTT 150230Z 35023G33KT 9999 FEW015 09/M03 Q1025 NOSIG RMK 1CU015 A3027
RJTT 150203Z 34020G30KT 9999 FEW050 09/M06 Q1025 RMK 1SC050 A3028
RJTT 150200Z 35018KT 9999 FEW050 09/M04 Q1025 NOSIG RMK 1SC050 A3028
RJTT 150130Z 34017KT 9999 FEW050 08/M06 Q1025 NOSIG RMK 1SC050 A3029
RJTT 150100Z 35016KT 9999 FEW050 SCT080 08/M05 Q1026 NOSIG RMK 1SC050 3AC080 A3030
RJTT 150030Z 34015KT 9999 FEW050 08/M05 Q1026 NOSIG RMK 2SC050 A3030
RJTT 150000Z 35015KT 9999 FEW050 08/M04 Q1026 NOSIG RMK 1SC050 A3030
RJTT 142330Z 35016KT 9999 FEW050 07/M06 Q1025 NOSIG RMK 1SC050 A3029
RJTT 142324Z 35016G26KT 9999 FEW050 07/M04 Q1025 RMK 1SC050 A3029
RJTT 142300Z 34014KT 9999 FEW050 07/M06 Q1025 NOSIG RMK 1SC050 A3029
RJTT 142230Z 34016KT 9999 FEW050 06/M06 Q1025 NOSIG RMK 1CU050 A3027
RJTT 142200Z 34017KT 9999 FEW050 06/M07 Q1025 NOSIG RMK 1CU050 A3027
RJTT 142130Z 33017KT 9999 FEW050 06/M07 Q1024 NOSIG RMK 1CU050 A3025
RJTT 142114Z 34017G27KT 9999 FEW050 06/M07 Q1024 RMK 1CU050 A3025
RJTT 142100Z 33018KT CAVOK 06/M07 Q1024 NOSIG RMK A3024
RJTT 142030Z 34017KT CAVOK 06/M07 Q1023 NOSIG RMK 6AC070 A3023
RJTT 142000Z 34017KT CAVOK 06/M08 Q1023 NOSIG RMK 5AC070 A3023